Time;durP1;ratioP1;P1;durP2;ratioP2;P2;SDS_P1;SDS_P2;PMS_P1;PMS_P2;Temp;Humidity;BMP_temperature;BMP_pressure;BME280_temperature;BME280_humidity;BME280_pressure;Samples;Min_cycle;Max_cycle;Signal;HPM_P1;HPM_P2
2021/12/03 00:01:03;;;;;;;9.85;2.45;;;3.30;1.00;;;;;;5034424;28;20156;-73
2021/12/03 00:03:29;;;;;;;5.57;1.83;;;3.30;1.00;;;;;;5034195;28;20037;-73
2021/12/03 00:05:56;;;;;;;4.95;1.55;;;3.40;1.00;;;;;;5034654;28;20361;-73
2021/12/03 00:08:24;;;;;;;8.65;2.22;;;3.30;1.00;;;;;;5033779;28;20044;-73
2021/12/03 00:10:55;;;;;;;8.60;2.00;;;3.30;1.00;;;;;;5034360;28;20041;-73
2021/12/03 00:13:21;;;;;;;9.65;2.25;;;3.20;1.00;;;;;;5037474;28;20107;-73
2021/12/03 00:15:48;;;;;;;4.93;1.90;;;3.20;1.00;;;;;;5037994;28;20116;-73
2021/12/03 00:18:14;;;;;;;4.22;1.92;;;3.20;1.00;;;;;;5037258;28;20068;-74
2021/12/03 00:20:40;;;;;;;6.78;1.73;;;3.30;1.00;;;;;;5038209;28;20037;-73
2021/12/03 00:23:06;;;;;;;4.25;1.92;;;3.30;1.00;;;;;;5037829;28;20041;-73
2021/12/03 00:25:34;;;;;;;4.60;1.63;;;3.30;1.00;;;;;;5037364;28;20049;-73
2021/12/03 00:28:00;;;;;;;3.80;1.80;;;3.20;1.00;;;;;;5037231;28;20500;-73
2021/12/03 00:30:27;;;;;;;5.72;2.03;;;3.30;1.00;;;;;;5037507;28;20145;-73
2021/12/03 00:32:53;;;;;;;4.47;1.67;;;3.20;1.00;;;;;;5037473;28;20099;-73
2021/12/03 00:35:20;;;;;;;6.95;2.53;;;3.30;1.00;;;;;;5037392;28;20532;-73
2021/12/03 00:37:48;;;;;;;3.47;1.40;;;3.30;1.00;;;;;;5037353;28;20500;-73
2021/12/03 00:40:18;;;;;;;3.70;1.60;;;3.30;1.00;;;;;;5037048;28;20037;-73
2021/12/03 00:42:44;;;;;;;4.82;1.60;;;3.40;1.00;;;;;;5037317;28;20037;-73
2021/12/03 00:45:12;;;;;;;5.53;1.80;;;3.20;1.00;;;;;;5037216;28;20048;-73
2021/12/03 00:47:39;;;;;;;6.03;2.03;;;3.20;1.00;;;;;;5036661;28;20040;-74
2021/12/03 00:50:07;;;;;;;5.68;1.85;;;3.20;1.00;;;;;;5037232;28;20496;-73
2021/12/03 00:52:32;;;;;;;5.28;1.45;;;3.10;1.00;;;;;;5037040;28;20076;-73
2021/12/03 00:54:58;;;;;;;5.00;2.25;;;3.10;1.00;;;;;;5037087;28;20041;-73
2021/12/03 00:57:25;;;;;;;9.57;1.67;;;3.20;1.00;;;;;;5036968;28;20366;-73
2021/12/03 00:59:51;;;;;;;3.55;1.80;;;3.30;1.00;;;;;;5036847;28;20048;-73
2021/12/03 01:02:17;;;;;;;3.53;1.52;;;3.30;1.00;;;;;;5036460;28;20034;-73
2021/12/03 01:04:44;;;;;;;7.03;2.15;;;3.30;1.00;;;;;;5036528;28;20045;-73
2021/12/03 01:07:10;;;;;;;6.03;2.10;;;3.40;1.00;;;;;;5036795;28;20041;-74
2021/12/03 01:09:36;;;;;;;2.95;1.20;;;3.40;1.00;;;;;;5037005;28;20523;-73
2021/12/03 01:12:02;;;;;;;6.03;1.58;;;3.40;1.00;;;;;;5037275;28;20040;-73
2021/12/03 01:14:28;;;;;;;4.38;1.50;;;3.40;1.00;;;;;;5036586;28;20041;-73
2021/12/03 01:16:54;;;;;;;5.07;1.73;;;3.50;1.00;;;;;;5036463;28;20041;-73
2021/12/03 01:19:20;;;;;;;6.07;1.48;;;3.40;1.00;;;;;;5036871;28;20519;-73
2021/12/03 01:21:47;;;;;;;7.13;1.60;;;3.50;1.00;;;;;;5036275;28;20164;-73
2021/12/03 01:24:13;;;;;;;4.78;1.65;;;3.50;1.00;;;;;;5036213;28;20076;-74
2021/12/03 01:26:40;;;;;;;4.38;1.75;;;3.30;1.00;;;;;;5036508;28;20081;-73
2021/12/03 01:29:06;;;;;;;4.65;1.83;;;3.20;1.00;;;;;;5036129;28;20041;-73
2021/12/03 01:31:32;;;;;;;4.95;1.55;;;3.20;1.00;;;;;;5036686;28;20043;-73
2021/12/03 01:33:58;;;;;;;5.00;1.67;;;3.20;1.00;;;;;;5036400;28;20041;-74
2021/12/03 01:36:24;;;;;;;2.75;1.00;;;3.20;1.00;;;;;;5036568;28;20092;-73
2021/12/03 01:38:50;;;;;;;3.88;1.27;;;3.20;1.00;;;;;;5036458;28;20049;-73
2021/12/03 01:41:16;;;;;;;6.63;1.85;;;3.00;1.00;;;;;;5036223;28;20033;-73
2021/12/03 01:43:43;;;;;;;6.65;1.30;;;3.00;1.00;;;;;;5036381;28;20091;-73
2021/12/03 01:46:12;;;;;;;4.20;1.58;;;3.00;1.00;;;;;;5036295;28;20041;-73
2021/12/03 01:48:39;;;;;;;4.22;1.33;;;2.90;1.00;;;;;;5035973;28;20037;-74
2021/12/03 01:51:06;;;;;;;4.15;1.45;;;2.90;1.00;;;;;;5036244;28;20033;-73
2021/12/03 01:53:35;;;;;;;5.85;1.90;;;2.90;1.00;;;;;;5036570;28;20049;-73
2021/12/03 01:56:06;;;;;;;2.47;1.27;;;2.90;1.00;;;;;;5036388;28;20033;-73
2021/12/03 01:58:32;;;;;;;7.78;1.50;;;3.00;1.00;;;;;;5036780;28;20037;-73
2021/12/03 02:01:02;;;;;;;6.30;3.25;;;3.00;1.00;;;;;;5035802;28;20519;-73
2021/12/03 02:03:31;;;;;;;6.80;2.03;;;3.00;1.00;;;;;;5035849;28;20037;-73
2021/12/03 02:06:03;;;;;;;5.82;2.70;;;3.10;1.00;;;;;;5036101;28;20099;-73
2021/12/03 02:08:29;;;;;;;4.00;1.80;;;3.10;1.00;;;;;;5036406;28;20125;-74
2021/12/03 02:10:56;;;;;;;6.47;2.22;;;3.20;1.00;;;;;;5035605;28;20045;-73
2021/12/03 02:13:22;;;;;;;6.45;2.20;;;3.00;1.00;;;;;;5035696;28;20135;-73
2021/12/03 02:15:48;;;;;;;6.40;1.90;;;3.00;1.00;;;;;;5035500;28;20083;-73
2021/12/03 02:18:16;;;;;;;4.65;1.60;;;3.00;1.00;;;;;;5035724;28;20099;-73
2021/12/03 02:20:47;;;;;;;6.22;2.20;;;3.00;1.00;;;;;;5035472;28;20033;-73
2021/12/03 02:23:14;;;;;;;4.40;1.70;;;2.90;1.00;;;;;;5035973;28;20057;-73
2021/12/03 02:25:42;;;;;;;6.63;3.95;;;2.80;1.00;;;;;;5034778;28;20418;-74
2021/12/03 02:28:08;;;;;;;4.55;1.55;;;2.70;1.00;;;;;;5035290;28;20072;-73
2021/12/03 02:30:35;;;;;;;4.03;1.30;;;2.90;1.00;;;;;;5035516;28;20099;-73
2021/12/03 02:33:00;;;;;;;6.00;1.38;;;2.80;1.00;;;;;;5035214;28;20045;-73
2021/12/03 02:35:26;;;;;;;6.15;1.48;;;2.80;1.00;;;;;;5034621;28;20388;-73
2021/12/03 02:37:53;;;;;;;5.30;1.95;;;2.70;1.00;;;;;;5035048;28;20040;-73
2021/12/03 02:40:20;;;;;;;5.15;1.65;;;2.50;1.00;;;;;;5035122;28;20493;-73
2021/12/03 02:42:46;;;;;;;4.63;1.67;;;2.50;1.00;;;;;;5034740;28;20531;-73
2021/12/03 02:45:14;;;;;;;3.17;1.25;;;2.60;1.00;;;;;;5034964;28;20045;-73
2021/12/03 02:47:40;;;;;;;4.90;1.80;;;2.60;1.00;;;;;;5034801;28;20037;-74
2021/12/03 02:50:08;;;;;;;4.93;1.60;;;2.60;1.00;;;;;;5034966;28;20045;-73
2021/12/03 02:52:34;;;;;;;4.35;1.60;;;2.70;1.00;;;;;;5034804;28;20052;-74
2021/12/03 02:54:59;;;;;;;5.10;1.75;;;2.70;1.00;;;;;;5034570;28;20049;-73
2021/12/03 02:57:26;;;;;;;2.55;1.50;;;2.70;1.00;;;;;;5034789;28;20120;-73
2021/12/03 02:59:52;;;;;;;5.50;1.90;;;2.60;1.00;;;;;;5034869;28;20076;-73
2021/12/03 03:02:18;;;;;;;4.60;2.08;;;2.40;1.00;;;;;;5034320;28;20069;-73
2021/12/03 03:04:44;;;;;;;3.92;1.83;;;2.30;1.00;;;;;;5034714;28;20045;-73
2021/12/03 03:07:10;;;;;;;7.35;2.05;;;2.40;1.00;;;;;;5034602;28;20029;-73
2021/12/03 03:09:35;;;;;;;4.65;1.55;;;2.40;1.00;;;;;;5034835;28;20052;-73
2021/12/03 03:12:02;;;;;;;9.60;1.58;;;2.30;1.00;;;;;;5034359;28;20557;-73
2021/12/03 03:14:27;;;;;;;4.03;1.40;;;2.30;1.00;;;;;;5034137;28;20049;-73
2021/12/03 03:16:54;;;;;;;3.72;1.67;;;2.40;1.00;;;;;;5034404;28;20183;-73
2021/12/03 03:19:22;;;;;;;4.68;1.80;;;2.50;1.00;;;;;;5034823;28;20622;-73
2021/12/03 03:21:49;;;;;;;9.10;2.00;;;2.60;1.00;;;;;;5034823;28;20124;-73
2021/12/03 03:24:16;;;;;;;5.43;1.80;;;2.40;1.00;;;;;;5034441;28;20581;-73
2021/12/03 03:26:45;;;;;;;6.78;1.70;;;2.40;1.00;;;;;;5034528;28;20387;-73
2021/12/03 03:29:14;;;;;;;5.43;1.60;;;2.50;1.00;;;;;;5034632;28;20072;-73
2021/12/03 03:31:40;;;;;;;4.63;1.60;;;2.50;1.00;;;;;;5034740;28;20121;-73
2021/12/03 03:34:09;;;;;;;5.82;1.48;;;2.30;1.00;;;;;;5034466;28;20059;-73
2021/12/03 03:36:37;;;;;;;9.73;2.20;;;2.30;1.00;;;;;;5034820;28;20048;-74
2021/12/03 03:39:07;;;;;;;4.82;2.10;;;2.30;1.00;;;;;;5034993;28;20045;-73
2021/12/03 03:41:33;;;;;;;3.73;1.43;;;2.20;1.00;;;;;;5034956;28;20128;-73
2021/12/03 03:44:00;;;;;;;6.18;1.90;;;2.20;1.00;;;;;;5033903;28;20084;-73
2021/12/03 03:46:26;;;;;;;5.40;1.65;;;2.10;1.00;;;;;;5034734;28;20476;-73
2021/12/03 03:48:52;;;;;;;7.55;1.63;;;2.10;1.00;;;;;;5038072;28;20037;-73
2021/12/03 03:51:18;;;;;;;4.15;1.63;;;2.20;1.00;;;;;;5037985;28;20480;-73
2021/12/03 03:53:44;;;;;;;5.90;1.55;;;2.30;1.00;;;;;;5038290;28;20060;-73
2021/12/03 03:56:11;;;;;;;3.25;1.40;;;2.30;1.00;;;;;;5038256;28;20037;-73
2021/12/03 03:58:38;;;;;;;4.18;1.75;;;2.20;1.00;;;;;;5038862;28;20037;-73
2021/12/03 04:01:07;;;;;;;6.43;1.60;;;2.10;1.00;;;;;;5038148;28;20092;-73
2021/12/03 04:03:33;;;;;;;5.35;2.10;;;2.00;1.40;;;;;;5037962;28;20037;-74
2021/12/03 04:06:00;;;;;;;5.55;1.98;;;2.00;1.00;;;;;;5038088;28;20133;-73
2021/12/03 04:08:29;;;;;;;4.57;1.75;;;2.00;1.00;;;;;;5037975;28;20583;-73
2021/12/03 04:10:59;;;;;;;4.95;1.77;;;2.10;1.00;;;;;;5037996;28;20041;-73
2021/12/03 04:13:26;;;;;;;5.70;2.30;;;2.20;1.00;;;;;;5037710;28;20051;-73
2021/12/03 04:15:52;;;;;;;5.68;2.00;;;2.20;1.00;;;;;;5037988;28;20083;-73
2021/12/03 04:18:18;;;;;;;6.88;2.10;;;2.30;1.00;;;;;;5037445;28;20129;-73
2021/12/03 04:20:44;;;;;;;3.38;1.80;;;2.40;1.00;;;;;;5037591;28;20065;-73
2021/12/03 04:23:12;;;;;;;3.40;2.10;;;2.30;1.00;;;;;;5037814;28;20120;-73
2021/12/03 04:25:38;;;;;;;3.17;1.60;;;2.20;1.40;;;;;;5037768;28;20118;-73
2021/12/03 04:28:04;;;;;;;3.15;1.75;;;2.00;1.00;;;;;;5037511;28;20128;-73
2021/12/03 04:30:31;;;;;;;5.35;1.70;;;1.90;1.00;;;;;;5037121;28;20539;-73
2021/12/03 04:32:58;;;;;;;4.88;1.92;;;1.90;1.00;;;;;;5037131;28;20056;-73
2021/12/03 04:35:26;;;;;;;3.38;1.95;;;1.90;24.70;;;;;;5037252;28;20038;-74
2021/12/03 04:37:52;;;;;;;7.55;2.20;;;1.90;7.30;;;;;;5037275;28;20037;-73
2021/12/03 04:40:20;;;;;;;3.95;1.85;;;1.90;13.00;;;;;;5036711;28;20073;-74
2021/12/03 04:42:47;;;;;;;3.58;1.80;;;1.90;5.00;;;;;;5037153;28;20041;-73
2021/12/03 04:45:15;;;;;;;3.03;2.05;;;1.80;7.60;;;;;;5037139;28;20041;-73
2021/12/03 04:47:41;;;;;;;4.25;1.80;;;2.00;1.00;;;;;;5037207;28;20052;-73
2021/12/03 04:50:10;;;;;;;6.05;2.80;;;2.00;1.00;;;;;;5037139;28;20490;-73
2021/12/03 04:52:36;;;;;;;3.40;1.73;;;1.90;1.00;;;;;;5036956;28;20107;-73
2021/12/03 04:55:03;;;;;;;4.13;1.60;;;2.00;1.00;;;;;;5037122;28;20065;-74
2021/12/03 04:57:29;;;;;;;3.40;1.60;;;2.10;1.00;;;;;;5036686;28;20066;-73
2021/12/03 04:59:55;;;;;;;4.25;1.50;;;2.20;1.90;;;;;;5036993;28;20037;-74
2021/12/03 05:02:22;;;;;;;4.50;1.80;;;2.10;1.00;;;;;;5036417;28;20076;-73
2021/12/03 05:04:49;;;;;;;4.32;1.70;;;2.10;1.00;;;;;;5036473;28;20037;-74
2021/12/03 05:09:40;;;;;;;4.00;2.17;;;2.10;1.00;;;;;;5036136;28;20037;-73
2021/12/03 05:12:07;;;;;;;4.32;1.95;;;2.00;1.00;;;;;;5036628;28;20111;-74
2021/12/03 05:14:33;;;;;;;5.00;1.70;;;1.90;1.00;;;;;;5036384;28;20045;-73
2021/12/03 05:16:59;;;;;;;3.28;1.50;;;1.90;1.00;;;;;;5036391;28;20414;-73
2021/12/03 05:19:25;;;;;;;4.93;2.08;;;1.90;1.00;;;;;;5036461;28;20037;-73
2021/12/03 05:21:50;;;;;;;5.32;1.67;;;1.90;1.00;;;;;;5036449;28;20048;-73
2021/12/03 05:24:17;;;;;;;4.47;1.65;;;2.00;1.00;;;;;;5036111;28;20053;-73
2021/12/03 05:26:44;;;;;;;3.58;1.80;;;2.10;1.40;;;;;;5036648;28;20240;-73
2021/12/03 05:29:11;;;;;;;4.50;1.42;;;2.10;1.00;;;;;;5035801;28;20554;-73
2021/12/03 05:31:38;;;;;;;5.57;1.70;;;2.20;1.00;;;;;;5036243;28;20048;-73
2021/12/03 05:34:10;;;;;;;2.70;1.60;;;2.20;1.00;;;;;;5035666;28;20045;-73
2021/12/03 05:36:37;;;;;;;4.72;1.50;;;2.20;1.00;;;;;;5036437;28;20073;-73
2021/12/03 05:39:04;;;;;;;2.03;1.42;;;2.20;1.00;;;;;;5036326;28;20045;-73
2021/12/03 05:41:29;;;;;;;6.50;1.80;;;2.20;2.60;;;;;;5036385;28;20064;-73
2021/12/03 05:43:55;;;;;;;5.30;1.40;;;2.30;1.00;;;;;;5035704;28;20107;-73
2021/12/03 05:46:21;;;;;;;2.67;1.35;;;2.30;1.00;;;;;;5035638;28;20124;-73
2021/12/03 05:48:47;;;;;;;6.55;1.50;;;2.20;1.00;;;;;;5035868;28;20051;-73
2021/12/03 05:51:13;;;;;;;6.68;1.83;;;2.30;1.00;;;;;;5035888;28;20508;-74
2021/12/03 05:53:38;;;;;;;4.75;1.70;;;2.20;4.30;;;;;;5035345;28;20056;-73
2021/12/03 05:56:05;;;;;;;5.95;1.60;;;2.20;1.00;;;;;;5035463;28;20045;-73
2021/12/03 05:58:30;;;;;;;6.78;2.13;;;2.20;1.00;;;;;;5036004;28;20052;-73
2021/12/03 06:00:56;;;;;;;4.43;1.98;;;2.20;1.00;;;;;;5036216;28;20033;-73
2021/12/03 06:03:22;;;;;;;5.68;1.77;;;2.10;1.00;;;;;;5035548;28;20057;-73
2021/12/03 06:05:48;;;;;;;6.50;1.70;;;2.10;1.00;;;;;;5035541;28;20038;-73
2021/12/03 06:08:14;;;;;;;3.15;1.80;;;2.20;1.00;;;;;;5035207;28;20191;-73
2021/12/03 06:10:40;;;;;;;3.42;1.48;;;2.10;1.00;;;;;;5034647;28;20037;-73
2021/12/03 06:13:06;;;;;;;3.78;1.70;;;2.10;1.00;;;;;;5035089;28;20053;-73
2021/12/03 06:15:31;;;;;;;2.08;1.38;;;2.00;1.00;;;;;;5035413;28;20060;-73
2021/12/03 06:17:57;;;;;;;2.83;1.50;;;1.90;1.00;;;;;;5034832;28;20048;-73
2021/12/03 06:20:24;;;;;;;5.55;1.65;;;1.90;1.00;;;;;;5023084;28;20120;-73
2021/12/03 06:22:49;;;;;;;2.95;1.40;;;1.80;1.00;;;;;;5050323;28;20080;-73
2021/12/03 06:25:16;;;;;;;3.90;1.35;;;1.80;7.40;;;;;;5027887;28;20101;-73
2021/12/03 06:27:44;;;;;;;3.83;1.60;;;1.70;7.40;;;;;;5015046;28;20088;-74
2021/12/03 06:30:13;;;;;;;3.92;1.63;;;1.70;1.00;;;;;;5015248;28;20041;-73
2021/12/03 06:32:41;;;;;;;2.90;1.52;;;1.90;1.00;;;;;;5014844;28;20100;-73
2021/12/03 06:35:10;;;;;;;8.50;1.95;;;1.90;1.00;;;;;;5034026;28;20041;-73
2021/12/03 06:37:36;;;;;;;3.60;1.40;;;1.90;1.00;;;;;;5033750;28;20124;-73
2021/12/03 06:40:05;;;;;;;5.43;1.65;;;1.90;1.00;;;;;;5033277;28;20037;-73
2021/12/03 06:42:31;;;;;;;5.25;1.83;;;1.80;1.00;;;;;;5033397;28;20096;-73
2021/12/03 06:44:57;;;;;;;3.95;1.58;;;1.90;1.00;;;;;;5033041;28;20520;-73
2021/12/03 06:47:23;;;;;;;4.15;1.77;;;1.90;1.00;;;;;;5030278;28;20033;-73
2021/12/03 06:49:49;;;;;;;4.38;1.48;;;1.90;1.00;;;;;;5033112;28;20033;-74
2021/12/03 06:52:16;;;;;;;4.30;1.50;;;1.80;1.00;;;;;;5033090;28;20045;-74
2021/12/03 06:54:43;;;;;;;3.85;1.55;;;1.80;1.00;;;;;;5033061;28;20045;-74
2021/12/03 06:57:10;;;;;;;2.40;1.55;;;1.80;1.00;;;;;;5032893;28;20531;-74
2021/12/03 06:59:37;;;;;;;3.72;1.60;;;1.80;1.00;;;;;;5032896;28;20048;-74
2021/12/03 07:02:04;;;;;;;2.63;1.52;;;1.90;1.00;;;;;;5029741;28;20499;-73
2021/12/03 07:04:29;;;;;;;2.72;1.50;;;1.70;1.00;;;;;;5029544;28;20036;-74
2021/12/03 07:06:55;;;;;;;5.57;1.67;;;1.70;1.00;;;;;;5029718;28;20037;-74
2021/12/03 07:09:21;;;;;;;4.05;1.70;;;1.70;1.00;;;;;;5032504;28;20033;-74
2021/12/03 07:11:47;;;;;;;6.53;2.00;;;1.90;1.00;;;;;;5032535;28;20499;-75
2021/12/03 07:14:14;;;;;;;4.88;1.55;;;2.00;1.00;;;;;;5031709;28;20471;-74
2021/12/03 07:16:40;;;;;;;4.10;1.85;;;2.00;1.00;;;;;;5032111;28;20113;-75
2021/12/03 07:19:07;;;;;;;4.50;1.70;;;2.00;1.00;;;;;;5032081;28;20037;-73
2021/12/03 07:21:33;;;;;;;3.45;1.70;;;2.00;1.00;;;;;;5032724;28;20034;-74
2021/12/03 07:23:59;;;;;;;4.50;1.80;;;2.00;1.00;;;;;;5033701;28;20134;-73
2021/12/03 07:26:25;;;;;;;3.80;2.20;;;2.00;1.00;;;;;;5033463;28;20046;-73
2021/12/03 07:28:53;;;;;;;4.13;1.80;;;1.90;1.00;;;;;;5029906;28;20060;-74
2021/12/03 07:31:19;;;;;;;3.80;1.92;;;2.00;1.00;;;;;;5028063;28;20509;-73
2021/12/03 07:33:47;;;;;;;6.20;2.15;;;1.90;1.00;;;;;;5032692;28;20114;-73
2021/12/03 07:36:12;;;;;;;5.28;1.65;;;1.80;1.00;;;;;;5031731;28;20492;-73
2021/12/03 07:38:38;;;;;;;5.15;2.05;;;1.90;1.00;;;;;;5032317;28;20071;-73
2021/12/03 07:41:04;;;;;;;3.90;1.75;;;1.90;1.00;;;;;;5033568;28;20072;-73
2021/12/03 07:43:30;;;;;;;2.85;1.83;;;1.90;1.00;;;;;;5032824;28;20045;-72
2021/12/03 07:45:56;;;;;;;2.60;2.00;;;2.00;1.00;;;;;;5033348;28;20045;-73
2021/12/03 07:48:23;;;;;;;4.40;2.13;;;2.00;1.00;;;;;;5032654;28;20033;-73
2021/12/03 07:50:51;;;;;;;5.28;1.70;;;2.10;1.00;;;;;;5031654;28;20171;-73
2021/12/03 07:53:18;;;;;;;3.08;1.70;;;2.10;1.00;;;;;;5032730;28;20128;-73
2021/12/03 07:55:49;;;;;;;2.75;1.55;;;2.30;1.00;;;;;;5033123;28;20038;-74
2021/12/03 07:58:17;;;;;;;7.03;1.80;;;2.30;1.00;;;;;;5032726;28;20045;-74
2021/12/03 08:00:44;;;;;;;4.70;1.40;;;2.30;1.00;;;;;;5032382;28;20033;-74
2021/12/03 08:03:11;;;;;;;4.75;1.67;;;2.30;1.00;;;;;;5032938;28;20041;-73
2021/12/03 08:05:39;;;;;;;4.18;1.60;;;2.40;1.00;;;;;;5032713;28;20041;-73
2021/12/03 08:08:06;;;;;;;3.75;1.60;;;2.30;1.00;;;;;;5031199;28;20140;-73
2021/12/03 08:10:34;;;;;;;3.97;1.50;;;2.30;1.00;;;;;;5032181;28;20036;-73
2021/12/03 08:13:01;;;;;;;3.22;1.50;;;2.30;1.00;;;;;;5032039;28;20497;-73
2021/12/03 08:15:27;;;;;;;5.85;1.70;;;2.40;1.00;;;;;;5030951;28;20051;-71
2021/12/03 08:17:52;;;;;;;4.80;1.95;;;2.40;1.00;;;;;;5031518;28;20508;-71
2021/12/03 08:20:19;;;;;;;2.75;1.67;;;2.50;1.00;;;;;;5031761;28;20045;-71
2021/12/03 08:22:44;;;;;;;4.18;1.80;;;2.50;1.00;;;;;;5031100;28;20404;-71
2021/12/03 08:25:11;;;;;;;4.50;1.50;;;2.50;1.00;;;;;;5032233;28;20061;-72
2021/12/03 08:27:39;;;;;;;3.40;2.30;;;2.50;1.00;;;;;;5031687;28;20115;-70
2021/12/03 08:30:06;;;;;;;6.30;1.50;;;2.50;1.00;;;;;;5031166;28;20527;-71
2021/12/03 08:32:32;;;;;;;4.10;1.70;;;2.50;1.00;;;;;;5030764;28;20072;-71
2021/12/03 08:34:58;;;;;;;4.93;1.90;;;2.50;1.00;;;;;;5034512;28;20042;-71
2021/12/03 08:37:24;;;;;;;3.58;1.60;;;2.40;1.00;;;;;;5018552;28;20188;-71
2021/12/03 08:39:50;;;;;;;4.00;1.40;;;2.50;1.00;;;;;;5015825;28;20133;-71
2021/12/03 08:42:18;;;;;;;4.45;1.70;;;2.60;1.00;;;;;;5015584;28;20370;-70
2021/12/03 08:44:44;;;;;;;4.93;1.85;;;2.60;1.00;;;;;;5015683;28;20050;-71
2021/12/03 08:47:09;;;;;;;3.35;1.40;;;2.60;1.00;;;;;;5027759;28;20071;-70
2021/12/03 08:49:46;;;;;;;3.10;1.77;;;2.60;1.00;;;;;;5034112;28;20385;-71
2021/12/03 08:54:54;;;;;;;3.45;1.80;;;2.60;1.00;;;;;;5016194;28;20528;-72
2021/12/03 08:57:23;;;;;;;3.92;2.00;;;2.70;1.00;;;;;;5024247;28;20060;-73
2021/12/03 08:59:52;;;;;;;3.28;2.03;;;2.70;1.00;;;;;;5034305;28;20571;-72
2021/12/03 09:02:18;;;;;;;5.07;1.80;;;2.70;1.00;;;;;;5033466;28;20037;-72
2021/12/03 09:04:44;;;;;;;3.88;1.90;;;2.80;1.00;;;;;;5035581;28;20180;-71
2021/12/03 09:07:10;;;;;;;5.32;1.58;;;2.80;1.00;;;;;;5026109;28;20044;-72
2021/12/03 09:09:36;;;;;;;4.22;1.70;;;2.80;1.00;;;;;;5034667;28;20040;-72
2021/12/03 09:12:03;;;;;;;2.35;1.77;;;2.80;1.00;;;;;;5033290;28;20033;-73
2021/12/03 09:17:20;;;;;;;4.13;1.40;;;2.90;1.00;;;;;;5035431;28;20148;-72
2021/12/03 09:25:06;;;;;;;5.15;1.90;;;2.90;1.00;;;;;;5035043;28;20519;-71
2021/12/03 09:27:32;;;;;;;4.93;2.00;;;2.90;1.00;;;;;;5034514;28;20060;-71
2021/12/03 09:29:58;;;;;;;5.97;2.50;;;2.80;1.00;;;;;;5033477;28;20389;-71
2021/12/03 09:32:29;;;;;;;4.35;2.00;;;2.90;1.00;;;;;;5033592;28;20033;-71
2021/12/03 09:34:55;;;;;;;2.97;1.95;;;2.90;1.00;;;;;;5033886;28;20053;-71
2021/12/03 09:37:22;;;;;;;4.00;2.20;;;2.90;1.00;;;;;;5034582;28;20087;-72
2021/12/03 09:39:48;;;;;;;4.35;2.03;;;3.00;1.00;;;;;;5035150;28;20049;-70
2021/12/03 09:42:15;;;;;;;2.83;1.80;;;3.10;1.00;;;;;;5034717;28;20041;-69
2021/12/03 09:44:44;;;;;;;5.35;1.77;;;3.30;1.00;;;;;;5034528;28;20045;-71
2021/12/03 09:47:11;;;;;;;4.10;2.10;;;3.30;1.00;;;;;;5034492;28;20106;-72
2021/12/03 09:49:38;;;;;;;3.00;1.90;;;3.50;1.00;;;;;;5034417;28;20128;-71
2021/12/03 09:52:20;;;;;;;3.22;1.60;;;3.40;1.00;;;;;;5034509;28;20096;-70
2021/12/03 09:54:50;;;;;;;3.97;2.30;;;3.40;1.00;;;;;;5028312;28;20061;-70
2021/12/03 09:57:46;;;;;;;2.38;1.58;;;3.50;1.00;;;;;;5014725;28;20073;-70
2021/12/03 10:00:32;;;;;;;3.58;2.17;;;3.50;1.00;;;;;;5024154;28;20041;-70
2021/12/03 10:16:59;;;;;;;4.50;2.10;;;3.50;1.00;;;;;;5009883;28;20045;-71
2021/12/03 10:19:34;;;;;;;4.35;1.75;;;3.40;1.00;;;;;;5027559;28;20025;-71
2021/12/03 10:33:02;;;;;;;4.07;1.90;;;3.30;1.00;;;;;;5030910;28;20072;-73
2021/12/03 10:38:31;;;;;;;3.33;2.08;;;3.30;1.00;;;;;;5032065;28;20562;-69
2021/12/03 10:43:55;;;;;;;6.07;3.05;;;3.40;1.00;;;;;;5032647;28;20130;-70
2021/12/03 10:52:37;;;;;;;3.60;2.40;;;3.50;1.00;;;;;;5033364;28;20083;-69
2021/12/03 11:00:58;;;;;;;5.93;2.28;;;3.50;1.00;;;;;;5026290;28;20516;-71
2021/12/03 11:28:34;;;;;;;3.97;1.98;;;3.50;1.00;;;;;;5032247;28;20059;-77
2021/12/03 11:31:24;;;;;;;4.63;2.42;;;3.50;1.00;;;;;;5032164;28;20054;-77
2021/12/03 11:34:39;;;;;;;2.85;1.90;;;3.50;1.00;;;;;;5031656;28;20601;-76
2021/12/03 13:00:39;;;;;;;4.45;1.60;;;3.30;1.00;;;;;;5016159;28;20042;-70
2021/12/03 13:31:48;;;;;;;6.82;2.67;;;3.60;1.00;;;;;;5014449;28;20041;-70
2021/12/03 14:05:00;;;;;;;5.43;2.83;;;3.90;1.00;;;;;;5032538;28;20167;-73
2021/12/03 14:40:20;;;;;;;3.85;2.00;;;4.40;1.00;;;;;;5013807;28;20032;-71
2021/12/03 14:56:18;;;;;;;4.35;2.70;;;4.50;1.00;;;;;;5033939;28;20564;-71
2021/12/03 14:58:50;;;;;;;5.72;2.70;;;4.50;1.00;;;;;;5033518;28;20041;-71
2021/12/03 15:01:24;;;;;;;5.35;2.60;;;4.40;1.00;;;;;;5048266;28;20515;-71
2021/12/03 15:04:23;;;;;;;3.88;2.33;;;4.40;1.00;;;;;;5033444;28;20447;-71
2021/12/03 15:07:15;;;;;;;6.28;2.60;;;4.40;1.00;;;;;;5033449;28;20061;-71
2021/12/03 15:09:46;;;;;;;5.20;2.30;;;4.50;1.00;;;;;;5033904;28;20038;-71
2021/12/03 15:12:35;;;;;;;5.82;3.10;;;4.40;1.00;;;;;;5033620;28;20049;-71
2021/12/03 15:18:28;;;;;;;7.43;3.13;;;4.40;1.00;;;;;;5033213;28;20045;-71
2021/12/03 15:23:33;;;;;;;7.82;3.15;;;4.30;1.00;;;;;;5031231;28;20044;-71
2021/12/03 15:34:16;;;;;;;6.35;3.67;;;4.20;1.00;;;;;;5032411;28;20411;-72
2021/12/03 15:39:49;;;;;;;7.22;2.40;;;4.20;1.00;;;;;;5025171;28;20025;-73
2021/12/03 16:03:50;;;;;;;6.25;1.90;;;4.40;1.00;;;;;;5035958;28;20473;-71
2021/12/03 16:09:00;;;;;;;5.15;2.20;;;4.50;1.00;;;;;;5036686;28;20091;-72
2021/12/03 16:11:38;;;;;;;4.57;2.05;;;4.60;1.00;;;;;;5036647;28;20084;-71
2021/12/03 16:14:33;;;;;;;4.05;1.70;;;4.60;1.00;;;;;;5034689;28;20120;-72
2021/12/03 16:19:58;;;;;;;4.07;2.20;;;4.70;1.00;;;;;;5033177;28;20088;-76
2021/12/03 16:22:41;;;;;;;5.88;2.88;;;4.80;1.00;;;;;;5035781;28;20045;-73
2021/12/03 16:47:00;;;;;;;5.25;1.88;;;5.00;1.00;;;;;;5035850;28;20147;-72
2021/12/03 16:51:58;;;;;;;3.22;1.60;;;5.00;1.00;;;;;;5035293;28;20037;-72
2021/12/03 16:57:28;;;;;;;3.03;1.40;;;5.10;1.00;;;;;;5001212;28;20053;-73
2021/12/03 16:59:55;;;;;;;4.45;1.70;;;5.10;1.00;;;;;;5035160;28;20117;-73
2021/12/03 17:02:27;;;;;;;3.75;2.05;;;5.00;1.00;;;;;;5032988;28;20073;-73
2021/12/03 17:05:21;;;;;;;7.40;2.80;;;5.00;1.00;;;;;;5035267;28;20049;-73
2021/12/03 17:16:16;;;;;;;5.60;2.53;;;5.50;1.00;;;;;;5030726;28;20516;-74
2021/12/03 17:29:17;;;;;;;3.38;0.95;;;6.00;1.00;;;;;;5029207;28;20451;-72
2021/12/03 17:55:34;;;;;;;9.20;5.13;;;6.30;3.90;;;;;;5033476;28;20083;-73
2021/12/03 17:58:17;;;;;;;2.58;1.17;;;6.40;1.00;;;;;;5033993;28;20508;-72
2021/12/03 18:00:59;;;;;;;3.88;1.95;;;6.30;1.00;;;;;;5031884;28;20051;-72
2021/12/03 18:03:34;;;;;;;4.53;2.58;;;6.30;2.60;;;;;;5031395;28;20119;-72
2021/12/03 18:51:14;;;;;;;2.90;1.20;;;6.20;25.90;;;;;;5032650;28;20606;-72
2021/12/03 18:56:31;;;;;;;3.10;0.70;;;6.30;26.90;;;;;;5031887;28;20428;-73
2021/12/03 18:59:02;;;;;;;2.00;1.50;;;6.20;37.70;;;;;;5030635;28;20504;-73
2021/12/03 19:01:29;;;;;;;3.97;1.17;;;6.20;45.80;;;;;;5028997;28;20053;-72
2021/12/03 19:07:08;;;;;;;1.77;1.23;;;6.50;47.90;;;;;;4994858;28;20053;-73
2021/12/03 19:09:40;;;;;;;1.58;0.70;;;6.80;47.50;;;;;;5031206;28;20045;-73
2021/12/03 19:12:12;;;;;;;1.08;0.57;;;6.90;44.60;;;;;;5030800;28;20530;-73
2021/12/03 19:14:41;;;;;;;2.78;1.20;;;6.90;53.90;;;;;;5032068;28;20080;-73
2021/12/03 19:17:08;;;;;;;1.83;1.50;;;6.90;51.30;;;;;;5030706;28;20045;-75
2021/12/03 19:19:43;;;;;;;1.75;0.60;;;6.80;47.30;;;;;;5030689;28;20104;-73
2021/12/03 19:22:10;;;;;;;3.20;1.50;;;6.90;63.90;;;;;;5032306;28;20048;-72
2021/12/03 19:24:36;;;;;;;2.13;1.20;;;6.70;64.00;;;;;;5031748;28;20053;-73
2021/12/03 19:27:02;;;;;;;2.83;1.95;;;6.50;69.60;;;;;;5032045;28;20128;-73
2021/12/03 19:29:32;;;;;;;4.78;3.10;;;6.30;88.50;;;;;;5028734;28;20045;-75
2021/12/03 19:31:59;;;;;;;3.35;2.00;;;6.30;93.10;;;;;;5031402;28;20048;-73
2021/12/03 19:34:24;;;;;;;2.70;1.50;;;6.30;99.90;;;;;;5032180;28;20045;-74
2021/12/03 19:36:52;;;;;;;3.65;1.30;;;6.20;99.90;;;;;;5032068;28;20037;-74
2021/12/03 19:39:19;;;;;;;1.85;1.10;;;6.20;99.90;;;;;;5031746;28;20074;-74
2021/12/03 19:44:32;;;;;;;1.00;0.90;;;6.40;99.90;;;;;;5032277;28;20052;-73
2021/12/03 19:46:58;;;;;;;0.77;0.63;;;6.40;99.90;;;;;;5029936;28;20048;-72
2021/12/03 19:51:56;;;;;;;1.48;1.10;;;6.40;99.90;;;;;;5032117;28;20037;-72
2021/12/03 19:54:23;;;;;;;4.20;1.25;;;6.30;99.90;;;;;;5031824;28;20046;-71
2021/12/03 19:56:50;;;;;;;1.60;0.90;;;6.30;99.90;;;;;;5031100;28;20542;-72
2021/12/03 19:59:18;;;;;;;1.52;1.42;;;6.30;99.90;;;;;;5030958;28;20044;-73
2021/12/03 20:01:45;;;;;;;1.95;1.55;;;6.30;99.90;;;;;;5031489;28;20037;-73
2021/12/03 20:04:14;;;;;;;3.63;2.00;;;6.30;99.90;;;;;;5031823;28;20063;-75
2021/12/03 20:06:43;;;;;;;1.75;1.50;;;6.30;99.90;;;;;;5031964;28;20037;-76
2021/12/03 20:09:15;;;;;;;1.73;1.20;;;6.30;99.90;;;;;;5028052;28;20067;-75
2021/12/03 20:11:44;;;;;;;2.38;1.52;;;6.30;99.90;;;;;;5028129;28;20042;-75
2021/12/03 20:14:16;;;;;;;1.60;1.50;;;6.30;99.90;;;;;;5031126;28;20599;-75
2021/12/03 20:17:03;;;;;;;2.70;1.88;;;6.30;99.90;;;;;;5030314;28;20128;-75
2021/12/03 20:27:08;;;;;;;1.25;0.80;;;6.50;99.90;;;;;;5029898;28;20038;-75
2021/12/03 20:29:38;;;;;;;0.60;0.60;;;6.50;99.90;;;;;;5033733;28;20071;-75
2021/12/03 20:32:24;;;;;;;1.95;1.40;;;6.50;99.90;;;;;;5036787;28;20524;-74
2021/12/03 20:37:21;;;;;;;1.58;1.35;;;6.50;99.90;;;;;;5037162;28;20114;-75
2021/12/03 20:39:48;;;;;;;0.80;0.80;;;6.50;99.90;;;;;;5037031;28;20039;-75
2021/12/03 20:42:21;;;;;;;0.93;0.90;;;6.50;99.90;;;;;;5037090;28;20033;-75